Terminal Aerodrome Forecast
Issued by NWS Los Angeles, CA

Home | Current Version | Previous Version | Text Only | Print | Product List | Glossary On
Versions: 1 2 3 4 5 6 7 8 9 10 11 12 13 14 15 16 17 18 19 20 21 22 23
109
FTUS46 KLOX 141739
TAFSMX
TAF
KSMX 141739Z 1418/1518 03012KT P6SM SCT250
     FM142000 32014G22KT P6SM SCT250
     FM142200 33018G28KT P6SM SCT250
     FM150200 35013KT P6SM SCT250
     FM150900 02009KT P6SM SKC
     FM151200 08004KT P6SM SKC=

USA.gov is the U.S. government's official web portal to all federal, state and local government web resources and services.